sensor_id;sensor_type;location;lat;lon;timestamp;temperature;humidity
262;DHT22;114;48.260;10.988;2024-03-02T00:00:37;5.70;1.00
262;DHT22;114;48.260;10.988;2024-03-02T00:03:04;5.60;1.00
262;DHT22;114;48.260;10.988;2024-03-02T00:05:29;5.60;1.00
262;DHT22;114;48.260;10.988;2024-03-02T00:07:57;5.50;1.00
262;DHT22;114;48.260;10.988;2024-03-02T00:10:26;5.50;1.00
262;DHT22;114;48.260;10.988;2024-03-02T00:12:55;5.50;1.00
262;DHT22;114;48.260;10.988;2024-03-02T00:15:43;5.50;1.00
262;DHT22;114;48.260;10.988;2024-03-02T00:18:16;5.50;1.00
262;DHT22;114;48.260;10.988;2024-03-02T00:20:43;5.50;1.00
262;DHT22;114;48.260;10.988;2024-03-02T00:23:10;5.50;1.00
262;DHT22;114;48.260;10.988;2024-03-02T00:25:44;5.40;1.00
262;DHT22;114;48.260;10.988;2024-03-02T00:28:20;5.40;1.00
262;DHT22;114;48.260;10.988;2024-03-02T00:30:58;5.40;1.00
262;DHT22;114;48.260;10.988;2024-03-02T00:33:34;5.30;1.00
262;DHT22;114;48.260;10.988;2024-03-02T00:36:02;5.30;1.00
262;DHT22;114;48.260;10.988;2024-03-02T00:38:32;5.30;1.00
262;DHT22;114;48.260;10.988;2024-03-02T00:41:05;5.40;1.00
262;DHT22;114;48.260;10.988;2024-03-02T00:46:17;5.30;1.00
262;DHT22;114;48.260;10.988;2024-03-02T00:48:55;5.40;1.00
262;DHT22;114;48.260;10.988;2024-03-02T00:51:29;5.50;1.00
262;DHT22;114;48.260;10.988;2024-03-02T00:53:59;5.30;1.00
262;DHT22;114;48.260;10.988;2024-03-02T00:56:25;5.40;1.00
262;DHT22;114;48.260;10.988;2024-03-02T00:58:52;5.30;1.00
262;DHT22;114;48.260;10.988;2024-03-02T01:01:18;5.30;1.00
262;DHT22;114;48.260;10.988;2024-03-02T01:03:45;5.20;1.00
262;DHT22;114;48.260;10.988;2024-03-02T01:06:11;5.30;1.00
262;DHT22;114;48.260;10.988;2024-03-02T01:08:38;5.20;1.00
262;DHT22;114;48.260;10.988;2024-03-02T01:11:04;5.20;1.00
262;DHT22;114;48.260;10.988;2024-03-02T01:13:31;5.20;1.00
262;DHT22;114;48.260;10.988;2024-03-02T01:15:57;5.20;1.00
262;DHT22;114;48.260;10.988;2024-03-02T01:18:24;5.20;1.00
262;DHT22;114;48.260;10.988;2024-03-02T01:20:50;5.30;1.00
262;DHT22;114;48.260;10.988;2024-03-02T01:23:20;5.30;1.00
262;DHT22;114;48.260;10.988;2024-03-02T01:25:49;5.30;1.00
262;DHT22;114;48.260;10.988;2024-03-02T01:28:15;5.30;1.00
262;DHT22;114;48.260;10.988;2024-03-02T01:30:42;5.30;1.00
262;DHT22;114;48.260;10.988;2024-03-02T01:33:07;5.30;1.00
262;DHT22;114;48.260;10.988;2024-03-02T01:35:33;5.20;1.00
262;DHT22;114;48.260;10.988;2024-03-02T01:38:00;5.30;1.00
262;DHT22;114;48.260;10.988;2024-03-02T01:40:26;5.10;1.00
262;DHT22;114;48.260;10.988;2024-03-02T01:42:52;5.10;1.00
262;DHT22;114;48.260;10.988;2024-03-02T01:45:23;5.10;1.00
262;DHT22;114;48.260;10.988;2024-03-02T01:47:49;5.20;1.00
262;DHT22;114;48.260;10.988;2024-03-02T01:50:16;5.30;1.00
262;DHT22;114;48.260;10.988;2024-03-02T01:52:49;5.10;1.00
262;DHT22;114;48.260;10.988;2024-03-02T01:55:15;5.20;1.00
262;DHT22;114;48.260;10.988;2024-03-02T01:57:41;5.20;1.00
262;DHT22;114;48.260;10.988;2024-03-02T02:00:07;5.40;1.00
262;DHT22;114;48.260;10.988;2024-03-02T02:02:34;5.20;1.00
262;DHT22;114;48.260;10.988;2024-03-02T02:05:00;5.20;1.00
262;DHT22;114;48.260;10.988;2024-03-02T02:07:26;5.20;1.00
262;DHT22;114;48.260;10.988;2024-03-02T02:09:52;5.20;1.00
262;DHT22;114;48.260;10.988;2024-03-02T02:12:17;5.10;1.00
262;DHT22;114;48.260;10.988;2024-03-02T02:14:49;5.10;1.00
262;DHT22;114;48.260;10.988;2024-03-02T02:17:18;5.20;1.00
262;DHT22;114;48.260;10.988;2024-03-02T02:19:44;5.10;1.00
262;DHT22;114;48.260;10.988;2024-03-02T02:22:10;5.10;1.00
262;DHT22;114;48.260;10.988;2024-03-02T02:24:42;5.20;1.00
262;DHT22;114;48.260;10.988;2024-03-02T02:27:08;5.30;1.00
262;DHT22;114;48.260;10.988;2024-03-02T02:29:34;5.40;1.00
262;DHT22;114;48.260;10.988;2024-03-02T02:32:00;5.20;1.00
262;DHT22;114;48.260;10.988;2024-03-02T02:34:25;5.30;1.00
262;DHT22;114;48.260;10.988;2024-03-02T02:36:51;5.40;1.00
262;DHT22;114;48.260;10.988;2024-03-02T02:39:19;5.30;1.00
262;DHT22;114;48.260;10.988;2024-03-02T02:41:45;5.50;1.00
262;DHT22;114;48.260;10.988;2024-03-02T02:44:11;5.20;1.00
262;DHT22;114;48.260;10.988;2024-03-02T02:46:39;5.20;1.00
262;DHT22;114;48.260;10.988;2024-03-02T02:49:04;5.20;1.00
262;DHT22;114;48.260;10.988;2024-03-02T02:51:30;5.20;1.00
262;DHT22;114;48.260;10.988;2024-03-02T02:53:56;5.10;1.00
262;DHT22;114;48.260;10.988;2024-03-02T02:56:22;5.20;1.00
262;DHT22;114;48.260;10.988;2024-03-02T02:58:48;5.30;1.00
262;DHT22;114;48.260;10.988;2024-03-02T03:01:15;5.20;1.00
262;DHT22;114;48.260;10.988;2024-03-02T03:03:42;5.30;1.00
262;DHT22;114;48.260;10.988;2024-03-02T03:06:08;5.10;1.00
262;DHT22;114;48.260;10.988;2024-03-02T03:08:33;5.20;1.00
262;DHT22;114;48.260;10.988;2024-03-02T03:10:59;5.20;1.00
262;DHT22;114;48.260;10.988;2024-03-02T03:13:25;5.10;1.00
262;DHT22;114;48.260;10.988;2024-03-02T03:15:50;5.10;1.00
262;DHT22;114;48.260;10.988;2024-03-02T03:18:16;5.10;1.00
262;DHT22;114;48.260;10.988;2024-03-02T03:20:42;5.10;1.00
262;DHT22;114;48.260;10.988;2024-03-02T03:23:07;5.20;1.00
262;DHT22;114;48.260;10.988;2024-03-02T03:25:34;5.20;1.00
262;DHT22;114;48.260;10.988;2024-03-02T03:27:59;5.20;1.00
262;DHT22;114;48.260;10.988;2024-03-02T03:30:27;5.20;1.00
262;DHT22;114;48.260;10.988;2024-03-02T03:32:53;5.20;1.00
262;DHT22;114;48.260;10.988;2024-03-02T03:35:18;5.20;1.00
262;DHT22;114;48.260;10.988;2024-03-02T03:37:44;5.30;1.00
262;DHT22;114;48.260;10.988;2024-03-02T03:40:10;5.40;1.00
262;DHT22;114;48.260;10.988;2024-03-02T03:42:36;5.20;1.00
262;DHT22;114;48.260;10.988;2024-03-02T03:45:03;5.40;1.00
262;DHT22;114;48.260;10.988;2024-03-02T03:47:29;5.20;1.00
262;DHT22;114;48.260;10.988;2024-03-02T03:49:54;5.30;1.00
262;DHT22;114;48.260;10.988;2024-03-02T03:52:20;5.20;1.00
262;DHT22;114;48.260;10.988;2024-03-02T03:54:46;5.20;1.00
262;DHT22;114;48.260;10.988;2024-03-02T03:57:12;5.30;1.00
262;DHT22;114;48.260;10.988;2024-03-02T03:59:38;5.30;1.00
262;DHT22;114;48.260;10.988;2024-03-02T04:02:03;5.20;1.00
262;DHT22;114;48.260;10.988;2024-03-02T04:04:29;5.20;1.00
262;DHT22;114;48.260;10.988;2024-03-02T04:06:55;5.20;1.00
262;DHT22;114;48.260;10.988;2024-03-02T04:09:21;5.20;1.00
262;DHT22;114;48.260;10.988;2024-03-02T04:11:47;5.20;1.00
262;DHT22;114;48.260;10.988;2024-03-02T04:14:12;5.20;1.00
262;DHT22;114;48.260;10.988;2024-03-02T04:16:38;5.20;1.00
262;DHT22;114;48.260;10.988;2024-03-02T04:19:05;5.30;1.00
262;DHT22;114;48.260;10.988;2024-03-02T04:21:31;5.50;1.00
262;DHT22;114;48.260;10.988;2024-03-02T04:23:57;5.40;1.00
262;DHT22;114;48.260;10.988;2024-03-02T04:26:27;5.40;1.00
262;DHT22;114;48.260;10.988;2024-03-02T04:28:53;5.30;1.00
262;DHT22;114;48.260;10.988;2024-03-02T04:31:19;5.20;1.00
262;DHT22;114;48.260;10.988;2024-03-02T04:33:47;5.40;1.00
262;DHT22;114;48.260;10.988;2024-03-02T04:36:12;5.50;1.00
262;DHT22;114;48.260;10.988;2024-03-02T04:38:38;5.40;1.00
262;DHT22;114;48.260;10.988;2024-03-02T04:41:05;5.40;1.00
262;DHT22;114;48.260;10.988;2024-03-02T04:43:34;5.30;1.00
262;DHT22;114;48.260;10.988;2024-03-02T04:46:00;5.30;1.00
262;DHT22;114;48.260;10.988;2024-03-02T04:48:26;5.30;1.00
262;DHT22;114;48.260;10.988;2024-03-02T04:50:54;5.40;1.00
262;DHT22;114;48.260;10.988;2024-03-02T04:53:20;5.50;1.00
262;DHT22;114;48.260;10.988;2024-03-02T04:55:46;5.50;1.00
262;DHT22;114;48.260;10.988;2024-03-02T04:58:20;5.50;1.00
262;DHT22;114;48.260;10.988;2024-03-02T05:00:46;5.40;1.00
262;DHT22;114;48.260;10.988;2024-03-02T05:03:12;5.40;1.00
262;DHT22;114;48.260;10.988;2024-03-02T05:05:38;5.40;1.00
262;DHT22;114;48.260;10.988;2024-03-02T05:08:04;5.70;1.00
262;DHT22;114;48.260;10.988;2024-03-02T05:10:30;5.40;1.00
262;DHT22;114;48.260;10.988;2024-03-02T05:12:56;5.50;1.00
262;DHT22;114;48.260;10.988;2024-03-02T05:15:25;5.20;1.00
262;DHT22;114;48.260;10.988;2024-03-02T05:17:51;5.30;1.00
262;DHT22;114;48.260;10.988;2024-03-02T05:20:17;5.20;1.00
262;DHT22;114;48.260;10.988;2024-03-02T05:22:43;5.20;1.00
262;DHT22;114;48.260;10.988;2024-03-02T05:25:08;5.10;1.00
262;DHT22;114;48.260;10.988;2024-03-02T05:27:37;5.20;1.00
262;DHT22;114;48.260;10.988;2024-03-02T05:30:03;5.30;1.00
262;DHT22;114;48.260;10.988;2024-03-02T05:32:31;5.10;1.00
262;DHT22;114;48.260;10.988;2024-03-02T05:34:57;5.10;1.00
262;DHT22;114;48.260;10.988;2024-03-02T05:37:23;4.90;1.00
262;DHT22;114;48.260;10.988;2024-03-02T05:39:48;4.90;1.00
262;DHT22;114;48.260;10.988;2024-03-02T05:42:14;5.00;1.00
262;DHT22;114;48.260;10.988;2024-03-02T05:44:40;5.00;1.00
262;DHT22;114;48.260;10.988;2024-03-02T05:47:06;4.80;1.00
262;DHT22;114;48.260;10.988;2024-03-02T05:49:34;4.70;1.00
262;DHT22;114;48.260;10.988;2024-03-02T05:52:03;4.80;1.00
262;DHT22;114;48.260;10.988;2024-03-02T05:54:28;4.70;1.00
262;DHT22;114;48.260;10.988;2024-03-02T05:56:54;4.60;1.00
262;DHT22;114;48.260;10.988;2024-03-02T05:59:20;4.50;1.00
262;DHT22;114;48.260;10.988;2024-03-02T06:01:46;4.50;1.00
262;DHT22;114;48.260;10.988;2024-03-02T06:04:14;4.40;1.00
262;DHT22;114;48.260;10.988;2024-03-02T06:06:43;4.40;1.00
262;DHT22;114;48.260;10.988;2024-03-02T06:09:09;4.30;1.00
262;DHT22;114;48.260;10.988;2024-03-02T06:11:38;4.50;1.00
262;DHT22;114;48.260;10.988;2024-03-02T06:14:05;4.20;1.00
262;DHT22;114;48.260;10.988;2024-03-02T06:16:32;4.20;1.00
262;DHT22;114;48.260;10.988;2024-03-02T06:18:58;4.30;1.00
262;DHT22;114;48.260;10.988;2024-03-02T06:21:25;4.40;1.00
262;DHT22;114;48.260;10.988;2024-03-02T06:23:52;4.10;1.00
262;DHT22;114;48.260;10.988;2024-03-02T06:26:18;4.10;1.00
262;DHT22;114;48.260;10.988;2024-03-02T06:28:45;4.20;1.00
262;DHT22;114;48.260;10.988;2024-03-02T06:31:12;4.00;1.00
262;DHT22;114;48.260;10.988;2024-03-02T06:33:37;3.90;1.00
262;DHT22;114;48.260;10.988;2024-03-02T06:36:04;3.80;1.00
262;DHT22;114;48.260;10.988;2024-03-02T06:38:31;3.90;1.00
262;DHT22;114;48.260;10.988;2024-03-02T06:40:59;4.10;1.00
262;DHT22;114;48.260;10.988;2024-03-02T06:43:25;4.30;1.00
262;DHT22;114;48.260;10.988;2024-03-02T06:45:51;4.10;1.00
262;DHT22;114;48.260;10.988;2024-03-02T06:48:18;4.20;1.00
262;DHT22;114;48.260;10.988;2024-03-02T06:50:47;4.20;1.00
262;DHT22;114;48.260;10.988;2024-03-02T06:53:16;4.60;1.00
262;DHT22;114;48.260;10.988;2024-03-02T06:55:43;4.70;1.00
262;DHT22;114;48.260;10.988;2024-03-02T06:58:13;4.90;1.00
262;DHT22;114;48.260;10.988;2024-03-02T07:00:40;5.10;1.00
262;DHT22;114;48.260;10.988;2024-03-02T07:03:06;5.30;1.00
262;DHT22;114;48.260;10.988;2024-03-02T07:05:33;5.50;1.00
262;DHT22;114;48.260;10.988;2024-03-02T07:07:58;5.60;1.00
262;DHT22;114;48.260;10.988;2024-03-02T07:10:25;5.70;1.00
262;DHT22;114;48.260;10.988;2024-03-02T07:12:51;5.70;1.00
262;DHT22;114;48.260;10.988;2024-03-02T07:15:20;5.80;1.00
262;DHT22;114;48.260;10.988;2024-03-02T07:17:55;5.90;1.00
262;DHT22;114;48.260;10.988;2024-03-02T07:20:21;6.00;1.00
262;DHT22;114;48.260;10.988;2024-03-02T07:22:47;6.40;1.00
262;DHT22;114;48.260;10.988;2024-03-02T07:25:13;6.40;1.00
262;DHT22;114;48.260;10.988;2024-03-02T07:27:40;6.60;1.00
262;DHT22;114;48.260;10.988;2024-03-02T07:30:07;6.80;1.00
262;DHT22;114;48.260;10.988;2024-03-02T07:32:34;6.90;1.00
262;DHT22;114;48.260;10.988;2024-03-02T07:35:00;7.10;1.00
262;DHT22;114;48.260;10.988;2024-03-02T07:37:27;7.30;1.00
262;DHT22;114;48.260;10.988;2024-03-02T07:39:52;7.50;1.00
262;DHT22;114;48.260;10.988;2024-03-02T07:42:18;7.80;1.00
262;DHT22;114;48.260;10.988;2024-03-02T07:44:44;7.90;1.00
262;DHT22;114;48.260;10.988;2024-03-02T07:47:11;8.00;1.00
262;DHT22;114;48.260;10.988;2024-03-02T07:49:39;8.00;1.00
262;DHT22;114;48.260;10.988;2024-03-02T07:52:04;8.00;1.00
262;DHT22;114;48.260;10.988;2024-03-02T07:54:31;8.10;1.00
262;DHT22;114;48.260;10.988;2024-03-02T07:56:57;8.10;1.00
262;DHT22;114;48.260;10.988;2024-03-02T07:59:23;8.20;1.00
262;DHT22;114;48.260;10.988;2024-03-02T08:01:49;8.30;1.00
262;DHT22;114;48.260;10.988;2024-03-02T08:04:17;8.40;1.00
262;DHT22;114;48.260;10.988;2024-03-02T08:06:43;8.50;1.00
262;DHT22;114;48.260;10.988;2024-03-02T08:09:10;8.60;1.00
262;DHT22;114;48.260;10.988;2024-03-02T08:11:36;8.80;1.00
262;DHT22;114;48.260;10.988;2024-03-02T08:14:03;8.80;1.00
262;DHT22;114;48.260;10.988;2024-03-02T08:16:30;8.80;1.00
262;DHT22;114;48.260;10.988;2024-03-02T08:18:57;8.90;1.00
262;DHT22;114;48.260;10.988;2024-03-02T08:21:27;9.00;1.00
262;DHT22;114;48.260;10.988;2024-03-02T08:23:58;9.10;1.00
262;DHT22;114;48.260;10.988;2024-03-02T08:26:24;9.10;1.00
262;DHT22;114;48.260;10.988;2024-03-02T08:28:50;9.10;1.00
262;DHT22;114;48.260;10.988;2024-03-02T08:31:15;9.00;1.00
262;DHT22;114;48.260;10.988;2024-03-02T08:33:42;8.90;1.00
262;DHT22;114;48.260;10.988;2024-03-02T08:36:08;9.00;1.00
262;DHT22;114;48.260;10.988;2024-03-02T08:38:35;9.00;1.00
262;DHT22;114;48.260;10.988;2024-03-02T08:41:00;9.10;1.00
262;DHT22;114;48.260;10.988;2024-03-02T08:43:26;9.10;1.00
262;DHT22;114;48.260;10.988;2024-03-02T08:45:52;9.10;1.00
262;DHT22;114;48.260;10.988;2024-03-02T08:48:18;9.10;1.00
262;DHT22;114;48.260;10.988;2024-03-02T08:50:43;9.30;1.00
262;DHT22;114;48.260;10.988;2024-03-02T08:53:09;9.20;1.00
262;DHT22;114;48.260;10.988;2024-03-02T08:55:35;9.20;1.00
262;DHT22;114;48.260;10.988;2024-03-02T08:58:00;9.40;1.00
262;DHT22;114;48.260;10.988;2024-03-02T09:00:27;9.40;1.00
262;DHT22;114;48.260;10.988;2024-03-02T09:02:54;9.50;1.00
262;DHT22;114;48.260;10.988;2024-03-02T09:05:20;9.60;1.00
262;DHT22;114;48.260;10.988;2024-03-02T09:07:45;9.70;1.00
262;DHT22;114;48.260;10.988;2024-03-02T09:10:11;9.80;1.00
262;DHT22;114;48.260;10.988;2024-03-02T09:12:37;9.80;1.00
262;DHT22;114;48.260;10.988;2024-03-02T09:15:03;9.80;1.00
262;DHT22;114;48.260;10.988;2024-03-02T09:17:30;9.90;1.00
262;DHT22;114;48.260;10.988;2024-03-02T09:19:55;10.00;1.00
262;DHT22;114;48.260;10.988;2024-03-02T09:22:21;9.90;1.00
262;DHT22;114;48.260;10.988;2024-03-02T09:24:47;10.00;1.00
262;DHT22;114;48.260;10.988;2024-03-02T09:27:13;10.20;1.00
262;DHT22;114;48.260;10.988;2024-03-02T09:29:38;10.30;1.00
262;DHT22;114;48.260;10.988;2024-03-02T09:32:07;10.50;1.00
262;DHT22;114;48.260;10.988;2024-03-02T09:34:32;10.60;1.00
262;DHT22;114;48.260;10.988;2024-03-02T09:36:58;10.70;1.00
262;DHT22;114;48.260;10.988;2024-03-02T09:39:24;10.80;1.00
262;DHT22;114;48.260;10.988;2024-03-02T09:41:51;10.70;1.00
262;DHT22;114;48.260;10.988;2024-03-02T09:44:16;10.70;1.00
262;DHT22;114;48.260;10.988;2024-03-02T09:46:43;10.80;1.00
262;DHT22;114;48.260;10.988;2024-03-02T09:49:10;10.70;1.00
262;DHT22;114;48.260;10.988;2024-03-02T09:51:40;10.90;1.00
262;DHT22;114;48.260;10.988;2024-03-02T09:54:07;11.30;1.00
262;DHT22;114;48.260;10.988;2024-03-02T09:56:34;11.30;1.00
262;DHT22;114;48.260;10.988;2024-03-02T09:58:59;11.20;1.00
262;DHT22;114;48.260;10.988;2024-03-02T10:01:27;11.10;1.00
262;DHT22;114;48.260;10.988;2024-03-02T10:03:53;11.10;1.00
262;DHT22;114;48.260;10.988;2024-03-02T10:06:23;11.20;1.00
262;DHT22;114;48.260;10.988;2024-03-02T10:08:51;11.20;1.00
262;DHT22;114;48.260;10.988;2024-03-02T10:11:33;11.20;1.00
262;DHT22;114;48.260;10.988;2024-03-02T10:16:35;11.10;1.00
262;DHT22;114;48.260;10.988;2024-03-02T10:19:21;11.00;1.00
262;DHT22;114;48.260;10.988;2024-03-02T10:21:52;11.10;1.00
262;DHT22;114;48.260;10.988;2024-03-02T10:24:21;11.20;1.00
262;DHT22;114;48.260;10.988;2024-03-02T10:26:48;11.40;1.00
262;DHT22;114;48.260;10.988;2024-03-02T10:29:15;11.70;1.00
262;DHT22;114;48.260;10.988;2024-03-02T10:31:45;11.80;1.00
262;DHT22;114;48.260;10.988;2024-03-02T10:34:12;11.80;1.00
262;DHT22;114;48.260;10.988;2024-03-02T10:36:43;11.80;1.00
262;DHT22;114;48.260;10.988;2024-03-02T10:39:13;11.60;1.00
262;DHT22;114;48.260;10.988;2024-03-02T10:41:41;11.70;1.00
262;DHT22;114;48.260;10.988;2024-03-02T10:44:08;11.90;1.00
262;DHT22;114;48.260;10.988;2024-03-02T10:46:39;12.00;1.00
262;DHT22;114;48.260;10.988;2024-03-02T10:49:06;12.00;1.00
262;DHT22;114;48.260;10.988;2024-03-02T10:51:34;12.00;1.00
262;DHT22;114;48.260;10.988;2024-03-02T10:54:02;12.00;1.00
262;DHT22;114;48.260;10.988;2024-03-02T10:56:31;12.10;1.00
262;DHT22;114;48.260;10.988;2024-03-02T10:59:04;12.00;1.00
262;DHT22;114;48.260;10.988;2024-03-02T11:01:32;12.00;1.00
262;DHT22;114;48.260;10.988;2024-03-02T11:03:59;12.00;1.00
262;DHT22;114;48.260;10.988;2024-03-02T11:06:32;12.10;1.00
262;DHT22;114;48.260;10.988;2024-03-02T11:09:06;12.30;1.00
262;DHT22;114;48.260;10.988;2024-03-02T11:11:37;12.40;1.00
262;DHT22;114;48.260;10.988;2024-03-02T11:14:07;12.50;1.00
262;DHT22;114;48.260;10.988;2024-03-02T11:16:38;12.60;1.00
262;DHT22;114;48.260;10.988;2024-03-02T11:19:13;12.50;1.00
262;DHT22;114;48.260;10.988;2024-03-02T11:21:41;12.50;1.00
262;DHT22;114;48.260;10.988;2024-03-02T11:24:28;12.50;1.00
262;DHT22;114;48.260;10.988;2024-03-02T11:26:58;12.50;1.00
262;DHT22;114;48.260;10.988;2024-03-02T11:32:02;12.80;1.00
262;DHT22;114;48.260;10.988;2024-03-02T11:34:31;13.00;1.00
262;DHT22;114;48.260;10.988;2024-03-02T11:37:06;13.70;1.00
262;DHT22;114;48.260;10.988;2024-03-02T11:39:34;14.30;1.00
262;DHT22;114;48.260;10.988;2024-03-02T11:42:01;14.70;1.00
262;DHT22;114;48.260;10.988;2024-03-02T11:44:28;14.50;1.00
262;DHT22;114;48.260;10.988;2024-03-02T11:47:01;14.40;1.00
262;DHT22;114;48.260;10.988;2024-03-02T11:49:37;14.60;1.00
262;DHT22;114;48.260;10.988;2024-03-02T11:52:05;14.60;1.00
262;DHT22;114;48.260;10.988;2024-03-02T11:54:33;15.30;1.00
262;DHT22;114;48.260;10.988;2024-03-02T11:57:04;15.70;1.00
262;DHT22;114;48.260;10.988;2024-03-02T11:59:32;15.50;1.00
262;DHT22;114;48.260;10.988;2024-03-02T12:01:58;15.40;1.00
262;DHT22;114;48.260;10.988;2024-03-02T12:04:26;15.30;1.00
262;DHT22;114;48.260;10.988;2024-03-02T12:07:00;15.20;1.00
262;DHT22;114;48.260;10.988;2024-03-02T12:09:27;15.10;1.00
262;DHT22;114;48.260;10.988;2024-03-02T12:14:36;15.80;1.00
262;DHT22;114;48.260;10.988;2024-03-02T12:17:04;16.50;1.00
262;DHT22;114;48.260;10.988;2024-03-02T12:19:31;16.80;1.00
262;DHT22;114;48.260;10.988;2024-03-02T12:21:58;17.40;1.00
262;DHT22;114;48.260;10.988;2024-03-02T12:24:26;16.90;1.00
262;DHT22;114;48.260;10.988;2024-03-02T12:26:54;16.80;1.00
262;DHT22;114;48.260;10.988;2024-03-02T12:29:21;16.70;1.00
262;DHT22;114;48.260;10.988;2024-03-02T12:31:53;17.40;1.00
262;DHT22;114;48.260;10.988;2024-03-02T12:34:19;17.60;1.00
262;DHT22;114;48.260;10.988;2024-03-02T12:36:48;17.60;1.00
262;DHT22;114;48.260;10.988;2024-03-02T12:39:20;18.40;1.00
262;DHT22;114;48.260;10.988;2024-03-02T12:41:49;18.70;1.00
262;DHT22;114;48.260;10.988;2024-03-02T12:44:16;19.00;1.00
262;DHT22;114;48.260;10.988;2024-03-02T12:46:42;19.00;1.00
262;DHT22;114;48.260;10.988;2024-03-02T12:49:13;18.30;1.00
262;DHT22;114;48.260;10.988;2024-03-02T12:51:40;17.50;1.00
262;DHT22;114;48.260;10.988;2024-03-02T12:54:11;17.30;1.00
262;DHT22;114;48.260;10.988;2024-03-02T12:56:38;17.10;1.00
262;DHT22;114;48.260;10.988;2024-03-02T12:59:05;17.00;1.00
262;DHT22;114;48.260;10.988;2024-03-02T13:01:31;17.50;1.00
262;DHT22;114;48.260;10.988;2024-03-02T13:03:58;17.80;1.00
262;DHT22;114;48.260;10.988;2024-03-02T13:06:25;17.70;1.00
262;DHT22;114;48.260;10.988;2024-03-02T13:08:54;17.30;1.00
262;DHT22;114;48.260;10.988;2024-03-02T13:11:22;17.40;1.00
262;DHT22;114;48.260;10.988;2024-03-02T13:13:48;17.90;1.00
262;DHT22;114;48.260;10.988;2024-03-02T13:16:15;18.20;1.00
262;DHT22;114;48.260;10.988;2024-03-02T13:18:42;18.70;1.00
262;DHT22;114;48.260;10.988;2024-03-02T13:21:08;18.70;1.00
262;DHT22;114;48.260;10.988;2024-03-02T13:23:36;19.20;1.00
262;DHT22;114;48.260;10.988;2024-03-02T13:26:02;19.40;1.00
262;DHT22;114;48.260;10.988;2024-03-02T13:28:29;19.60;1.00
262;DHT22;114;48.260;10.988;2024-03-02T13:30:56;19.70;1.00
262;DHT22;114;48.260;10.988;2024-03-02T13:33:22;19.40;1.00
262;DHT22;114;48.260;10.988;2024-03-02T13:35:50;19.30;1.00
262;DHT22;114;48.260;10.988;2024-03-02T13:38:20;18.70;1.00
262;DHT22;114;48.260;10.988;2024-03-02T13:40:47;18.80;1.00
262;DHT22;114;48.260;10.988;2024-03-02T13:43:17;19.50;1.00
262;DHT22;114;48.260;10.988;2024-03-02T13:45:43;19.60;1.00
262;DHT22;114;48.260;10.988;2024-03-02T13:48:09;18.90;1.00
262;DHT22;114;48.260;10.988;2024-03-02T13:50:36;19.00;1.00
262;DHT22;114;48.260;10.988;2024-03-02T13:53:02;19.00;1.00
262;DHT22;114;48.260;10.988;2024-03-02T13:55:31;18.70;1.00
262;DHT22;114;48.260;10.988;2024-03-02T13:57:57;18.80;1.00
262;DHT22;114;48.260;10.988;2024-03-02T14:00:24;19.00;1.00
262;DHT22;114;48.260;10.988;2024-03-02T14:02:49;18.40;1.00
262;DHT22;114;48.260;10.988;2024-03-02T14:05:16;17.90;1.00
262;DHT22;114;48.260;10.988;2024-03-02T14:07:42;17.80;1.00
262;DHT22;114;48.260;10.988;2024-03-02T14:10:08;17.70;1.00
262;DHT22;114;48.260;10.988;2024-03-02T14:12:36;18.00;1.00
262;DHT22;114;48.260;10.988;2024-03-02T14:15:04;18.30;1.00
262;DHT22;114;48.260;10.988;2024-03-02T14:17:31;18.10;1.00
262;DHT22;114;48.260;10.988;2024-03-02T14:19:59;17.90;1.00
262;DHT22;114;48.260;10.988;2024-03-02T14:22:26;18.00;1.00
262;DHT22;114;48.260;10.988;2024-03-02T14:24:52;17.80;1.00
262;DHT22;114;48.260;10.988;2024-03-02T14:27:19;17.80;1.00
262;DHT22;114;48.260;10.988;2024-03-02T14:29:46;17.20;1.00
262;DHT22;114;48.260;10.988;2024-03-02T14:32:12;17.00;1.00
262;DHT22;114;48.260;10.988;2024-03-02T14:34:38;16.90;1.00
262;DHT22;114;48.260;10.988;2024-03-02T14:37:04;16.80;1.00
262;DHT22;114;48.260;10.988;2024-03-02T14:39:31;16.50;1.00
262;DHT22;114;48.260;10.988;2024-03-02T14:42:00;15.60;1.00
262;DHT22;114;48.260;10.988;2024-03-02T14:44:26;14.80;1.00
262;DHT22;114;48.260;10.988;2024-03-02T14:46:54;14.30;1.00
262;DHT22;114;48.260;10.988;2024-03-02T14:49:20;13.80;1.00
262;DHT22;114;48.260;10.988;2024-03-02T14:51:46;13.60;1.00
262;DHT22;114;48.260;10.988;2024-03-02T14:54:11;13.60;1.00
262;DHT22;114;48.260;10.988;2024-03-02T14:56:39;13.40;1.00
262;DHT22;114;48.260;10.988;2024-03-02T14:59:05;13.30;1.00
262;DHT22;114;48.260;10.988;2024-03-02T15:01:31;13.00;1.00
262;DHT22;114;48.260;10.988;2024-03-02T15:03:57;12.90;1.00
262;DHT22;114;48.260;10.988;2024-03-02T15:06:24;12.80;1.00
262;DHT22;114;48.260;10.988;2024-03-02T15:08:51;12.70;1.00
262;DHT22;114;48.260;10.988;2024-03-02T15:11:16;12.60;1.00
262;DHT22;114;48.260;10.988;2024-03-02T15:13:42;12.50;1.00
262;DHT22;114;48.260;10.988;2024-03-02T15:16:12;12.40;1.00
262;DHT22;114;48.260;10.988;2024-03-02T15:18:39;12.40;1.00
262;DHT22;114;48.260;10.988;2024-03-02T15:21:06;12.40;1.00
262;DHT22;114;48.260;10.988;2024-03-02T15:23:33;12.20;1.00
262;DHT22;114;48.260;10.988;2024-03-02T15:26:01;12.20;1.00
262;DHT22;114;48.260;10.988;2024-03-02T15:28:27;12.10;1.00
262;DHT22;114;48.260;10.988;2024-03-02T15:30:53;12.00;1.00
262;DHT22;114;48.260;10.988;2024-03-02T15:33:20;11.90;1.00
262;DHT22;114;48.260;10.988;2024-03-02T15:35:46;11.90;1.00
262;DHT22;114;48.260;10.988;2024-03-02T15:38:13;11.80;1.00
262;DHT22;114;48.260;10.988;2024-03-02T15:40:41;11.70;1.00
262;DHT22;114;48.260;10.988;2024-03-02T15:43:07;11.70;1.00
262;DHT22;114;48.260;10.988;2024-03-02T15:45:35;11.60;1.00
262;DHT22;114;48.260;10.988;2024-03-02T15:48:03;11.60;1.00
262;DHT22;114;48.260;10.988;2024-03-02T15:50:29;11.40;1.00
262;DHT22;114;48.260;10.988;2024-03-02T15:52:54;11.30;1.00
262;DHT22;114;48.260;10.988;2024-03-02T15:55:28;11.20;1.00
262;DHT22;114;48.260;10.988;2024-03-02T15:57:54;11.10;1.00
262;DHT22;114;48.260;10.988;2024-03-02T16:00:19;11.00;1.00
262;DHT22;114;48.260;10.988;2024-03-02T16:02:45;11.00;1.00
262;DHT22;114;48.260;10.988;2024-03-02T16:05:11;10.70;1.00
262;DHT22;114;48.260;10.988;2024-03-02T16:07:36;10.80;1.00
262;DHT22;114;48.260;10.988;2024-03-02T16:10:05;10.80;1.00
262;DHT22;114;48.260;10.988;2024-03-02T16:12:34;10.80;1.00
262;DHT22;114;48.260;10.988;2024-03-02T16:15:00;10.80;1.00
262;DHT22;114;48.260;10.988;2024-03-02T16:17:27;10.70;1.00
262;DHT22;114;48.260;10.988;2024-03-02T16:19:54;10.60;1.00
262;DHT22;114;48.260;10.988;2024-03-02T16:22:19;10.60;1.00
262;DHT22;114;48.260;10.988;2024-03-02T16:24:46;10.60;1.00
262;DHT22;114;48.260;10.988;2024-03-02T16:27:12;10.50;1.00
262;DHT22;114;48.260;10.988;2024-03-02T16:29:38;10.50;1.00
262;DHT22;114;48.260;10.988;2024-03-02T16:32:12;10.30;1.00
262;DHT22;114;48.260;10.988;2024-03-02T16:34:38;10.30;1.00
262;DHT22;114;48.260;10.988;2024-03-02T16:37:04;10.20;1.00
262;DHT22;114;48.260;10.988;2024-03-02T16:39:32;10.10;1.00
262;DHT22;114;48.260;10.988;2024-03-02T16:41:58;10.10;1.00
262;DHT22;114;48.260;10.988;2024-03-02T16:44:25;10.30;1.00
262;DHT22;114;48.260;10.988;2024-03-02T16:46:52;10.60;1.00
262;DHT22;114;48.260;10.988;2024-03-02T16:49:20;10.40;1.00
262;DHT22;114;48.260;10.988;2024-03-02T16:51:45;10.40;1.00
262;DHT22;114;48.260;10.988;2024-03-02T16:54:12;10.30;1.00